Time;durP1;ratioP1;P1;durP2;ratioP2;P2;SDS_P1;SDS_P2;PMS_P1;PMS_P2;Temp;Humidity;BMP_temperature;BMP_pressure;BME280_temperature;BME280_humidity;BME280_pressure;Samples;Min_cycle;Max_cycle;Signal;HPM_P1;HPM_P2
2022/09/24 00:01:32;;;;;;;1.83;1.70;;;;;;;7.19;77.14;62734.72;5043196;28;20201;-76
2022/09/24 00:04:01;;;;;;;2.25;2.15;;;;;;;7.20;77.32;62735.75;5045401;28;20190;-77
2022/09/24 00:06:29;;;;;;;2.03;1.92;;;;;;;7.17;78.01;62735.72;5046531;28;20535;-77
2022/09/24 00:08:58;;;;;;;1.83;1.77;;;;;;;7.15;78.13;62735.66;5044702;28;20233;-77
2022/09/24 00:11:28;;;;;;;1.83;1.73;;;;;;;7.21;78.38;62744.38;5044849;28;20202;-78
2022/09/24 00:13:56;;;;;;;2.20;2.10;;;;;;;7.16;78.93;62739.75;5044919;28;20198;-77
2022/09/24 00:16:25;;;;;;;2.28;2.17;;;;;;;7.17;79.86;62740.78;5048812;28;20198;-78
2022/09/24 00:18:52;;;;;;;3.05;2.47;;;;;;;7.15;81.60;62736.16;5044280;28;20303;-77
2022/09/24 00:21:22;;;;;;;5.90;4.47;;;;;;;7.13;82.25;62733.59;5044953;28;20204;-78
2022/09/24 00:23:50;;;;;;;4.07;3.60;;;;;;;6.98;83.54;62721.16;5046598;28;20245;-77
2022/09/24 00:29:04;;;;;;;5.43;3.90;;;;;;;6.90;85.81;62712.91;5041305;28;20237;-77
2022/09/24 00:31:32;;;;;;;3.38;3.15;;;;;;;6.88;86.42;62708.84;5046347;28;20197;-78
2022/09/24 00:34:00;;;;;;;3.38;3.08;;;;;;;6.85;86.89;62707.75;5046440;28;20201;-77
2022/09/24 00:36:27;;;;;;;3.63;3.00;;;;;;;6.81;88.08;62701.09;5027272;28;20202;-77
2022/09/24 00:38:56;;;;;;;5.70;4.22;;;;;;;6.76;89.49;62696.47;5045025;28;20549;-77
2022/09/24 00:41:27;;;;;;;4.28;3.88;;;;;;;6.68;90.91;62690.72;5048510;28;20405;-76
2022/09/24 00:43:54;;;;;;;3.88;3.58;;;;;;;6.65;91.74;62682.59;5040270;28;20202;-78
2022/09/24 00:46:26;;;;;;;4.28;3.80;;;;;;;6.61;92.45;62677.94;5043961;28;20198;-78
2022/09/24 00:48:58;;;;;;;3.90;3.60;;;;;;;6.53;93.02;62670.22;5045317;28;20275;-77
2022/09/24 00:51:28;;;;;;;3.70;3.38;;;;;;;6.47;93.62;62663.50;5043093;28;20202;-77
2022/09/24 00:54:00;;;;;;;3.65;3.38;;;;;;;6.38;94.31;62654.75;5045143;28;20431;-77
2022/09/24 00:56:30;;;;;;;4.18;3.80;;;;;;;6.28;95.19;62649.47;5043010;28;20205;-78
2022/09/24 00:59:01;;;;;;;4.65;4.30;;;;;;;6.22;96.29;62638.25;5043252;28;20256;-78
2022/09/24 01:01:28;;;;;;;5.47;4.97;;;;;;;6.18;98.54;62634.13;5047284;28;20221;-77
2022/09/24 01:03:57;;;;;;;4.00;3.70;;;;;;;6.19;98.90;62637.69;5043440;28;20198;-77
2022/09/24 01:06:24;;;;;;;3.58;3.33;;;;;;;6.08;99.44;62625.81;5043093;28;20269;-78
2022/09/24 01:08:51;;;;;;;4.55;3.72;;;;;;;6.06;99.98;62623.78;5043993;28;20253;-78
2022/09/24 01:11:30;;;;;;;4.70;3.40;;;;;;;5.99;100.00;62614.03;5045523;28;20202;-77
2022/09/24 01:14:34;;;;;;;4.07;3.78;;;;;;;5.88;100.00;62605.22;5044862;28;20202;-79
2022/09/24 01:17:16;;;;;;;9.88;3.42;;;;;;;5.76;100.00;62593.34;5045865;28;20233;-77
2022/09/24 01:20:20;;;;;;;3.85;3.55;;;;;;;5.73;100.00;62593.28;5046607;28;20208;-77
2022/09/24 01:23:03;;;;;;;3.72;3.47;;;;;;;5.60;100.00;62576.84;5045330;28;20214;-78
2022/09/24 01:25:41;;;;;;;3.58;3.28;;;;;;;5.63;100.00;62579.94;5047121;28;20529;-79
2022/09/24 01:28:34;;;;;;;5.60;5.15;;;;;;;5.66;100.00;62583.53;5047332;28;20260;-77
2022/09/24 01:31:09;;;;;;;4.68;4.22;;;;;;;5.58;100.00;62574.78;5039045;28;20280;-78
2022/09/24 01:33:38;;;;;;;4.28;3.80;;;;;;;5.54;100.00;62571.19;5030819;28;20549;-79
2022/09/24 01:36:08;;;;;;;4.13;3.83;;;;;;;5.58;100.00;62572.25;5045376;28;20221;-77
2022/09/24 01:38:43;;;;;;;4.35;3.95;;;;;;;5.56;100.00;62575.25;5050696;28;20442;-79
2022/09/24 01:41:14;;;;;;;4.38;4.07;;;;;;;5.47;100.00;62566.50;5050584;28;20256;-79
2022/09/24 01:43:43;;;;;;;4.70;4.30;;;;;;;5.51;100.00;62565.06;5049599;28;20405;-78
2022/09/24 01:46:13;;;;;;;4.90;4.50;;;;;;;5.48;100.00;62559.97;5051170;28;20217;-79
2022/09/24 01:48:41;;;;;;;4.60;4.30;;;;;;;5.44;100.00;62563.41;5048451;28;20245;-77
2022/09/24 01:51:15;;;;;;;4.97;4.57;;;;;;;5.40;100.00;62556.75;5050153;28;20233;-77
2022/09/24 01:53:47;;;;;;;4.80;4.40;;;;;;;5.40;100.00;62556.25;5049849;28;20221;-79
2022/09/24 01:56:21;;;;;;;4.55;4.25;;;;;;;5.36;100.00;62552.66;5049204;28;20221;-79
2022/09/24 01:58:52;;;;;;;4.65;4.38;;;;;;;5.33;100.00;62547.03;5047697;28;20605;-78
2022/09/24 02:01:28;;;;;;;5.60;4.90;;;;;;;5.33;100.00;62549.03;5052502;28;20213;-79
2022/09/24 02:03:58;;;;;;;5.88;5.28;;;;;;;5.38;100.00;62552.19;5049698;28;20198;-78
2022/09/24 02:06:31;;;;;;;4.55;4.25;;;;;;;5.38;100.00;62554.19;5048460;28;20206;-77
2022/09/24 02:08:59;;;;;;;4.20;3.97;;;;;;;5.35;100.00;62554.13;5047812;28;20206;-76
2022/09/24 02:11:26;;;;;;;5.10;4.70;;;;;;;5.28;100.00;62536.31;5045864;28;20395;-78
2022/09/24 02:13:59;;;;;;;4.95;4.55;;;;;;;5.27;100.00;62538.31;5046675;28;20363;-77
2022/09/24 02:16:31;;;;;;;5.18;4.68;;;;;;;5.28;100.00;62543.91;5050352;28;20198;-77
2022/09/24 02:19:04;;;;;;;4.13;3.83;;;;;;;5.19;100.00;62534.63;5031923;28;20198;-78
2022/09/24 02:21:35;;;;;;;5.10;4.70;;;;;;;5.27;100.00;62542.84;5044393;28;20501;-78
2022/09/24 02:24:09;;;;;;;5.93;5.28;;;;;;;5.22;100.00;62540.75;5051166;28;20205;-79
2022/09/24 02:26:36;;;;;;;5.50;5.10;;;;;;;5.17;100.00;62533.06;5045485;28;20257;-77
2022/09/24 02:29:04;;;;;;;4.40;4.10;;;;;;;5.14;100.00;62532.50;5046134;28;20205;-77
2022/09/24 02:31:36;;;;;;;7.43;5.82;;;;;;;5.14;100.00;62532.00;5047706;28;20222;-81
2022/09/24 02:34:24;;;;;;;5.13;4.75;;;;;;;5.19;100.00;62532.63;5045393;28;20220;-76
2022/09/24 02:36:55;;;;;;;5.18;4.72;;;;;;;5.14;100.00;62526.94;5042409;28;20222;-77
2022/09/24 02:39:22;;;;;;;4.72;4.43;;;;;;;5.03;100.00;62518.66;5029468;28;20202;-78
2022/09/24 02:41:53;;;;;;;5.57;4.78;;;;;;;5.07;100.00;62519.75;5028939;28;20238;-77
2022/09/24 02:44:21;;;;;;;4.90;4.50;;;;;;;5.03;100.00;62516.13;5043574;28;20476;-77
2022/09/24 02:46:49;;;;;;;5.40;4.95;;;;;;;5.07;100.00;62520.25;5047467;28;20348;-76
2022/09/24 02:49:17;;;;;;;5.80;4.40;;;;;;;5.04;100.00;62517.16;5045790;28;20423;-78
2022/09/24 02:51:45;;;;;;;5.60;5.10;;;;;;;4.99;100.00;62514.53;5047306;28;20193;-78
2022/09/24 02:54:12;;;;;;;6.03;4.93;;;;;;;5.03;100.00;62515.63;5038853;28;20201;-78
2022/09/24 02:56:39;;;;;;;5.32;4.85;;;;;;;5.01;100.00;62511.56;5025891;28;20202;-76
2022/09/24 02:59:11;;;;;;;5.13;4.72;;;;;;;5.07;100.00;62522.25;5046330;28;20438;-77
2022/09/24 03:01:37;;;;;;;4.65;4.35;;;;;;;4.97;100.00;62507.41;5048543;28;20248;-77
2022/09/24 03:04:07;;;;;;;4.20;3.90;;;;;;;5.05;100.00;62520.19;5046031;28;20204;-77
2022/09/24 03:06:35;;;;;;;5.00;4.60;;;;;;;4.92;100.00;62501.78;5046491;28;20232;-80
2022/09/24 03:09:04;;;;;;;5.43;5.03;;;;;;;4.81;100.00;62496.00;5049788;28;20411;-79
2022/09/24 03:11:32;;;;;;;5.45;5.05;;;;;;;4.87;100.00;62497.13;5035392;28;20226;-78
2022/09/24 03:14:00;;;;;;;5.20;4.75;;;;;;;4.86;100.00;62500.63;5040231;28;20198;-76
2022/09/24 03:16:27;;;;;;;5.30;4.90;;;;;;;4.78;100.00;62492.91;5047251;28;20201;-76
2022/09/24 03:18:54;;;;;;;6.93;5.47;;;;;;;4.79;100.00;62491.44;5045204;28;20303;-76
2022/09/24 03:21:23;;;;;;;5.18;4.65;;;;;;;4.80;100.00;62491.94;5043540;28;20300;-77
2022/09/24 03:23:49;;;;;;;5.53;5.13;;;;;;;4.79;100.00;62490.91;5045290;28;20217;-76
2022/09/24 03:26:17;;;;;;;4.53;4.22;;;;;;;4.80;100.00;62491.94;5041908;28;20194;-77
2022/09/24 03:28:45;;;;;;;4.40;4.10;;;;;;;4.76;100.00;62485.81;5047738;28;20445;-78
2022/09/24 03:31:13;;;;;;;4.07;3.78;;;;;;;4.75;100.00;62487.31;5049651;28;20279;-78
2022/09/24 03:33:42;;;;;;;4.70;4.30;;;;;;;4.65;100.00;62477.53;5049038;28;20221;-78
2022/09/24 03:36:11;;;;;;;4.68;4.22;;;;;;;4.62;100.00;62476.94;5047348;28;20210;-78
2022/09/24 03:38:40;;;;;;;4.25;4.03;;;;;;;4.67;100.00;62482.13;5045353;28;20511;-78
2022/09/24 03:41:08;;;;;;;4.85;4.45;;;;;;;4.72;100.00;62484.75;5045149;28;20244;-77
2022/09/24 03:43:36;;;;;;;4.80;4.47;;;;;;;4.77;100.00;62491.88;5046036;28;20264;-77
2022/09/24 03:46:05;;;;;;;5.30;4.38;;;;;;;4.79;100.00;62493.44;5043865;28;20202;-77
2022/09/24 03:48:33;;;;;;;4.53;4.22;;;;;;;4.77;100.00;62489.34;5030160;28;20227;-77
2022/09/24 03:51:04;;;;;;;4.28;3.97;;;;;;;4.73;100.00;62483.22;5024970;28;20237;-78
2022/09/24 03:53:30;;;;;;;4.45;4.15;;;;;;;4.76;100.00;62487.81;5028526;28;20409;-78
2022/09/24 03:56:01;;;;;;;4.50;4.20;;;;;;;4.73;100.00;62482.72;5043409;28;20226;-78
2022/09/24 03:58:30;;;;;;;4.47;4.18;;;;;;;4.69;100.00;62483.66;5044306;28;20228;-78
2022/09/24 04:00:57;;;;;;;4.88;4.47;;;;;;;4.66;100.00;62481.06;5048028;28;20506;-77
2022/09/24 04:03:25;;;;;;;4.43;4.03;;;;;;;4.61;100.00;62470.88;5043983;28;20225;-79
2022/09/24 04:05:52;;;;;;;4.40;4.10;;;;;;;4.66;100.00;62481.06;5044926;28;20225;-77
2022/09/24 04:08:19;;;;;;;4.28;3.97;;;;;;;4.67;100.00;62481.59;5044760;28;20218;-77
2022/09/24 04:10:46;;;;;;;3.60;3.40;;;;;;;4.66;100.00;62476.03;5047603;28;20240;-78
2022/09/24 04:13:15;;;;;;;4.15;3.95;;;;;;;4.60;100.00;62474.38;5043487;28;20222;-77
2022/09/24 04:15:43;;;;;;;4.70;4.30;;;;;;;4.60;100.00;62471.88;5046647;28;20239;-79
2022/09/24 04:18:11;;;;;;;4.15;3.85;;;;;;;4.58;100.00;62469.81;5049474;28;20218;-78
2022/09/24 04:20:38;;;;;;;4.88;4.57;;;;;;;4.59;100.00;62468.31;5046462;28;20228;-79
2022/09/24 04:23:06;;;;;;;4.15;3.85;;;;;;;4.58;100.00;62467.28;5045614;28;20242;-80
2022/09/24 04:25:34;;;;;;;4.55;4.18;;;;;;;4.59;100.00;62468.81;5048034;28;20226;-79
2022/09/24 04:28:03;;;;;;;4.90;4.50;;;;;;;4.59;100.00;62473.38;5048522;28;20356;-79
2022/09/24 04:30:34;;;;;;;4.57;4.18;;;;;;;4.63;100.00;62480.50;5047153;28;20452;-80
2022/09/24 04:33:02;;;;;;;4.53;4.22;;;;;;;4.74;100.00;62489.31;5042753;28;20264;-79
2022/09/24 04:35:30;;;;;;;4.30;4.00;;;;;;;4.72;100.00;62489.25;5047743;28;20202;-77
2022/09/24 04:37:59;;;;;;;4.57;4.28;;;;;;;4.73;100.00;62488.28;5044547;28;20277;-78
2022/09/24 04:40:26;;;;;;;4.35;4.05;;;;;;;4.74;100.00;62486.78;5043803;28;20248;-78
2022/09/24 04:42:53;;;;;;;4.53;4.22;;;;;;;4.84;100.00;62499.09;5045697;28;20226;-78
2022/09/24 04:45:20;;;;;;;5.03;4.60;;;;;;;4.90;100.00;62499.72;5043008;28;20244;-77
2022/09/24 04:47:52;;;;;;;5.25;4.93;;;;;;;4.97;100.00;62506.91;5044735;28;20218;-77
2022/09/24 04:50:20;;;;;;;4.95;4.40;;;;;;;5.07;100.00;62520.25;5045043;28;20440;-77
2022/09/24 04:52:46;;;;;;;5.97;4.25;;;;;;;5.15;100.00;62531.00;5043498;28;20222;-77
2022/09/24 04:55:13;;;;;;;4.65;4.35;;;;;;;5.26;100.00;62539.81;5033425;28;20249;-77
2022/09/24 04:57:40;;;;;;;7.40;3.97;;;;;;;5.38;100.00;62554.72;5043232;28;20240;-77
2022/09/24 05:00:10;;;;;;;4.63;4.28;;;;;;;5.49;100.00;62566.03;5042410;28;20202;-78
2022/09/24 05:02:37;;;;;;;4.78;4.47;;;;;;;5.60;100.00;62579.91;5046879;28;20237;-77
2022/09/24 05:05:06;;;;;;;4.50;4.10;;;;;;;5.71;100.00;62588.69;5035937;28;20195;-77
2022/09/24 05:07:32;;;;;;;3.65;3.45;;;;;;;5.81;100.00;62596.50;5032174;28;20226;-76
2022/09/24 05:09:59;;;;;;;4.78;4.47;;;;;;;5.82;100.00;62600.06;5036495;28;20201;-77
2022/09/24 05:12:26;;;;;;;6.57;4.63;;;;;;;5.81;100.00;62595.97;5037205;28;20219;-76
2022/09/24 05:14:53;;;;;;;6.03;5.53;;;;;;;5.81;100.00;62596.50;5034963;28;20197;-78
2022/09/24 05:17:20;;;;;;;5.63;5.13;;;;;;;5.68;100.00;62583.09;5037641;28;20218;-76
2022/09/24 05:19:47;;;;;;;6.38;5.88;;;;;;;5.85;100.00;62600.09;5038864;28;20202;-78
2022/09/24 05:22:15;;;;;;;9.10;6.40;;;;;;;5.97;100.00;62617.00;5041660;28;20225;-77
2022/09/24 05:24:42;;;;;;;8.23;6.68;;;;;;;5.95;100.00;62614.94;5046486;28;20541;-78
2022/09/24 05:27:08;;;;;;;7.03;6.38;;;;;;;6.11;100.00;62626.41;5049118;28;20217;-77
2022/09/24 05:29:36;;;;;;;6.63;5.53;;;;;;;6.16;100.00;62631.56;5047366;28;20198;-78
2022/09/24 05:32:05;;;;;;;6.70;5.97;;;;;;;6.21;100.00;62637.22;5044610;28;20252;-77
2022/09/24 05:34:32;;;;;;;7.57;6.78;;;;;;;6.28;100.00;62646.94;5046842;28;20198;-77
2022/09/24 05:36:59;;;;;;;7.25;6.45;;;;;;;6.55;100.00;62669.22;5044742;28;20264;-78
2022/09/24 05:39:30;;;;;;;9.45;7.15;;;;;;;6.59;100.00;62676.38;5046644;28;20325;-77
2022/09/24 05:41:57;;;;;;;6.90;6.38;;;;;;;6.68;100.00;62685.16;5049694;28;20221;-79
2022/09/24 05:44:24;;;;;;;6.93;6.32;;;;;;;6.62;100.00;62682.03;5041859;28;20509;-78
2022/09/24 05:46:52;;;;;;;8.18;7.15;;;;;;;6.81;100.00;62699.09;5045930;28;20230;-78
2022/09/24 05:49:19;;;;;;;7.15;6.38;;;;;;;6.94;100.00;62715.03;5048842;28;20213;-78
2022/09/24 05:51:49;;;;;;;7.93;5.80;;;;;;;6.93;100.00;62706.41;5047186;28;20233;-77
2022/09/24 05:54:18;;;;;;;9.25;6.65;;;;;;;6.93;100.00;62711.47;5043264;28;20256;-77
2022/09/24 05:56:46;;;;;;;8.50;6.65;;;;;;;6.98;100.00;62726.22;5040702;28;20194;-77
2022/09/24 05:59:13;;;;;;;7.82;7.03;;;;;;;7.03;100.00;62719.25;5046542;28;20221;-78
2022/09/24 06:01:40;;;;;;;9.68;6.65;;;;;;;7.06;100.00;62723.84;5046313;28;20202;-80
2022/09/24 06:04:07;;;;;;;6.93;6.32;;;;;;;7.14;100.00;62732.09;5049811;28;20236;-77
2022/09/24 06:06:37;;;;;;;8.02;7.18;;;;;;;7.34;100.00;62753.25;5042488;28;20402;-79
2022/09/24 06:09:04;;;;;;;8.38;6.88;;;;;;;7.53;100.00;62772.34;5045867;28;20194;-77
2022/09/24 06:11:33;;;;;;;8.13;6.97;;;;;;;7.66;100.00;62788.28;5047509;28;20226;-76
2022/09/24 06:14:03;;;;;;;7.72;7.03;;;;;;;7.55;100.00;62774.91;5043059;28;20198;-76
2022/09/24 06:16:31;;;;;;;6.88;6.25;;;;;;;7.55;100.00;62774.91;5041249;28;20199;-76
2022/09/24 06:18:58;;;;;;;7.57;6.78;;;;;;;7.64;100.00;62783.69;5046203;28;20249;-76
2022/09/24 06:21:25;;;;;;;6.78;6.18;;;;;;;7.61;100.00;62783.63;5042552;28;20201;-77
2022/09/24 06:23:52;;;;;;;6.68;6.07;;;;;;;7.63;100.00;62785.19;5038098;28;20416;-76
2022/09/24 06:26:19;;;;;;;6.82;6.20;;;;;;;7.76;100.00;62791.00;5041528;28;20247;-77
2022/09/24 06:28:46;;;;;;;9.13;6.50;;;;;;;7.78;100.00;62800.69;5045526;28;20213;-77
2022/09/24 06:31:14;;;;;;;6.95;6.20;;;;;;;7.98;100.00;62816.25;5041739;28;20308;-77
2022/09/24 06:33:41;;;;;;;7.90;6.15;;;;;;;8.13;100.00;62836.81;5043026;28;20252;-77
2022/09/24 06:36:08;;;;;;;8.05;6.43;;;;;;;8.25;99.45;62849.22;5050418;28;20484;-77
2022/09/24 06:38:35;;;;;;;6.90;5.75;;;;;;;8.26;98.71;62844.69;5044676;28;20303;-77
2022/09/24 06:41:04;;;;;;;7.50;5.75;;;;;;;8.40;97.88;62862.19;5044853;28;20206;-77
2022/09/24 06:43:31;;;;;;;5.97;5.38;;;;;;;8.15;97.51;62836.88;5042201;28;20281;-77
2022/09/24 06:46:00;;;;;;;5.95;5.40;;;;;;;8.36;97.62;62857.53;5034697;28;20396;-77
2022/09/24 06:48:29;;;;;;;7.03;4.78;;;;;;;8.40;96.05;62856.59;5037806;28;20214;-76
2022/09/24 06:50:59;;;;;;;5.40;4.90;;;;;;;8.65;95.86;62892.56;5034752;28;20289;-75
2022/09/24 06:53:27;;;;;;;4.75;4.35;;;;;;;8.75;96.42;62895.81;5035900;28;20214;-76
2022/09/24 06:55:57;;;;;;;5.30;4.90;;;;;;;8.88;97.16;62908.72;5038301;28;20511;-75
2022/09/24 06:58:24;;;;;;;5.00;4.60;;;;;;;9.07;94.79;62933.97;5033041;28;20240;-75
2022/09/24 07:00:53;;;;;;;6.57;4.50;;;;;;;8.92;94.37;62917.94;5039906;28;20198;-77
2022/09/24 07:03:20;;;;;;;5.55;4.97;;;;;;;9.09;94.78;62933.47;5036432;28;20949;-76
2022/09/24 07:05:49;;;;;;;6.15;4.68;;;;;;;9.18;93.75;62942.28;5035856;28;20206;-75
2022/09/24 07:08:18;;;;;;;6.30;4.93;;;;;;;9.24;91.58;62949.00;5034778;28;20245;-77
2022/09/24 07:10:47;;;;;;;5.75;4.95;;;;;;;9.37;91.42;62956.81;5034117;28;20217;-76
2022/09/24 07:13:15;;;;;;;7.50;5.25;;;;;;;9.43;92.00;62970.13;5033098;28;20257;-76
2022/09/24 07:15:42;;;;;;;6.57;4.85;;;;;;;9.43;90.13;62965.56;5037495;28;20198;-76
2022/09/24 07:18:10;;;;;;;5.18;4.80;;;;;;;9.57;90.77;62990.22;5035350;28;21381;-77
2022/09/24 07:20:37;;;;;;;5.88;5.38;;;;;;;9.72;90.20;63000.66;5033721;28;20519;-76
2022/09/24 07:23:06;;;;;;;7.10;5.47;;;;;;;9.82;89.48;63013.03;5036207;28;20219;-77
2022/09/24 07:25:36;;;;;;;5.53;5.03;;;;;;;9.89;87.73;63013.13;5035362;28;20199;-77
2022/09/24 07:28:04;;;;;;;6.75;5.68;;;;;;;9.92;87.00;63020.81;5034269;28;20229;-77
2022/09/24 07:30:32;;;;;;;6.07;5.45;;;;;;;9.89;86.08;63015.16;5038819;28;20304;-77
2022/09/24 07:32:59;;;;;;;6.43;5.80;;;;;;;9.96;86.20;63019.84;5032747;28;20245;-75
2022/09/24 07:35:27;;;;;;;7.53;5.90;;;;;;;10.14;88.85;63041.06;5033010;28;20202;-78
2022/09/24 07:37:59;;;;;;;5.97;5.45;;;;;;;10.26;85.29;63056.00;5031899;28;20218;-77
2022/09/24 07:40:28;;;;;;;5.95;5.35;;;;;;;10.30;84.19;63060.66;5037836;28;20194;-76
2022/09/24 07:42:55;;;;;;;7.35;5.60;;;;;;;10.16;83.31;63043.63;5037543;28;20661;-77
2022/09/24 07:45:23;;;;;;;5.93;5.43;;;;;;;10.07;83.75;63036.34;5038317;28;20208;-77
2022/09/24 07:47:57;;;;;;;6.47;5.63;;;;;;;10.32;83.22;63059.66;5030070;28;20293;-78
2022/09/24 07:50:25;;;;;;;7.57;5.13;;;;;;;10.49;83.54;63077.78;5035502;28;20204;-77
2022/09/24 07:52:53;;;;;;;7.47;5.80;;;;;;;10.63;81.01;63091.25;5035136;28;20262;-77
2022/09/24 07:55:20;;;;;;;6.00;5.55;;;;;;;10.58;80.59;63089.13;5030956;28;20213;-76
2022/09/24 07:57:49;;;;;;;5.60;5.10;;;;;;;10.46;81.74;63074.16;5037648;28;20242;-75
2022/09/24 08:00:17;;;;;;;6.20;5.70;;;;;;;10.51;81.07;63081.88;5034533;28;20244;-75
2022/09/24 08:02:44;;;;;;;7.57;5.78;;;;;;;10.58;82.66;63091.16;5035040;28;20268;-75
2022/09/24 08:05:12;;;;;;;7.72;5.68;;;;;;;10.81;78.42;63112.41;5037899;28;20202;-76
2022/09/24 08:07:41;;;;;;;5.75;5.25;;;;;;;10.75;77.52;63101.63;5032546;28;20222;-75
2022/09/24 08:10:09;;;;;;;6.00;4.93;;;;;;;10.62;77.95;63093.28;5033906;28;20268;-77
2022/09/24 08:12:39;;;;;;;6.13;5.22;;;;;;;10.72;78.80;63100.53;5029803;28;20241;-76
2022/09/24 08:15:08;;;;;;;5.63;4.80;;;;;;;10.89;78.27;63123.25;5035563;28;20221;-76
2022/09/24 08:17:34;;;;;;;5.47;4.97;;;;;;;10.89;75.95;63118.16;5037728;28;20223;-76
2022/09/24 08:20:02;;;;;;;5.22;4.82;;;;;;;11.09;75.16;63136.84;5037059;28;20426;-76
2022/09/24 08:22:35;;;;;;;4.97;4.55;;;;;;;11.08;74.61;63140.88;5045177;28;20214;-76
2022/09/24 08:25:03;;;;;;;9.07;6.20;;;;;;;11.36;73.29;63169.88;5038615;28;20206;-75
2022/09/24 08:27:31;;;;;;;5.00;4.60;;;;;;;11.46;71.48;63180.25;5036005;28;20237;-75
2022/09/24 08:29:59;;;;;;;5.00;4.55;;;;;;;11.57;71.58;63191.13;5044000;28;20268;-77
2022/09/24 08:32:28;;;;;;;5.20;4.70;;;;;;;11.69;71.60;63203.56;5040775;28;20276;-76
2022/09/24 08:34:54;;;;;;;7.53;5.07;;;;;;;12.01;70.30;63236.72;5041795;28;20536;-77
2022/09/24 08:37:21;;;;;;;5.60;5.10;;;;;;;12.10;67.88;63246.06;5043473;28;20298;-76
2022/09/24 08:39:48;;;;;;;5.25;4.82;;;;;;;12.13;64.87;63246.59;5044096;28;20240;-76
2022/09/24 08:42:28;;;;;;;6.28;4.75;;;;;;;12.07;65.71;63237.84;5044286;28;20222;-76
2022/09/24 08:47:49;;;;;;;6.25;3.90;;;;;;;12.27;65.02;63263.16;5043527;28;20252;-77
2022/09/24 08:50:20;;;;;;;4.88;4.13;;;;;;;12.04;62.67;63236.78;5031757;28;20269;-75
2022/09/24 08:52:58;;;;;;;4.40;4.00;;;;;;;12.05;61.64;63240.88;5040596;28;20387;-76
2022/09/24 08:55:32;;;;;;;5.57;3.80;;;;;;;12.17;61.43;63250.75;5042478;28;20478;-76
2022/09/24 08:58:08;;;;;;;5.15;3.80;;;;;;;12.27;60.70;63260.63;5048218;28;20225;-76
2022/09/24 09:00:42;;;;;;;4.13;3.72;;;;;;;12.55;59.73;63297.81;5051327;28;20261;-77
2022/09/24 09:03:22;;;;;;;4.30;3.75;;;;;;;12.84;58.44;63324.81;5049885;28;20222;-77
2022/09/24 09:05:54;;;;;;;4.10;3.80;;;;;;;13.07;58.91;63345.59;5044710;28;20252;-77
2022/09/24 09:08:33;;;;;;;3.78;3.47;;;;;;;13.31;57.00;63368.47;5030044;28;20226;-78
2022/09/24 09:11:03;;;;;;;3.83;3.53;;;;;;;13.62;55.98;63400.13;5037066;28;20202;-77
2022/09/24 09:13:34;;;;;;;4.20;3.33;;;;;;;13.59;54.75;63400.09;5045094;28;20226;-76
2022/09/24 09:16:06;;;;;;;6.38;3.30;;;;;;;13.66;51.69;63407.34;5048389;28;20197;-77
2022/09/24 09:18:37;;;;;;;6.55;3.03;;;;;;;13.66;52.67;63407.34;5049831;28;20241;-77
2022/09/24 09:21:13;;;;;;;4.05;3.67;;;;;;;13.88;52.76;63429.66;5046667;28;20280;-75
2022/09/24 09:23:48;;;;;;;4.63;4.18;;;;;;;14.10;54.40;63457.63;5046257;28;20540;-75
2022/09/24 09:26:20;;;;;;;3.45;3.15;;;;;;;14.28;51.53;63471.22;5048181;28;20201;-76
2022/09/24 09:28:48;;;;;;;3.78;3.58;;;;;;;14.25;51.52;63468.09;5046168;28;20217;-76
2022/09/24 09:31:27;;;;;;;4.82;3.65;;;;;;;14.39;51.95;63482.13;5046064;28;20202;-74
2022/09/24 09:34:12;;;;;;;4.10;3.72;;;;;;;14.21;52.16;63465.97;5048888;28;20486;-76
2022/09/24 09:36:52;;;;;;;3.50;3.20;;;;;;;14.22;52.00;63461.88;5047283;28;20190;-75
2022/09/24 09:39:36;;;;;;;3.63;3.33;;;;;;;14.36;51.87;63476.94;5042803;28;20529;-75
2022/09/24 09:42:16;;;;;;;12.02;3.65;;;;;;;14.42;49.34;63488.31;5044249;28;20244;-76
2022/09/24 09:44:44;;;;;;;3.20;3.05;;;;;;;14.41;49.55;63484.19;5044802;28;20265;-77
2022/09/24 09:47:23;;;;;;;3.03;2.85;;;;;;;14.60;48.74;63506.50;5037039;28;20217;-78
2022/09/24 09:49:55;;;;;;;3.20;3.00;;;;;;;14.55;47.95;63499.25;5038103;28;20730;-77
2022/09/24 09:52:28;;;;;;;4.78;3.28;;;;;;;14.49;46.94;63493.03;5041152;28;20252;-77
2022/09/24 09:54:55;;;;;;;4.13;2.90;;;;;;;14.46;47.47;63491.94;5039348;28;20204;-78
2022/09/24 09:57:25;;;;;;;3.60;2.90;;;;;;;14.66;46.83;63507.59;5045699;28;20210;-77
2022/09/24 09:59:54;;;;;;;2.55;2.45;;;;;;;14.70;48.08;63522.00;5042276;28;20270;-77
2022/09/24 10:02:27;;;;;;;2.70;2.53;;;;;;;14.89;46.81;63534.56;5046828;28;20233;-77
2022/09/24 10:04:58;;;;;;;4.32;3.90;;;;;;;14.99;47.24;63547.00;5049966;28;20189;-78
2022/09/24 10:07:25;;;;;;;3.65;3.45;;;;;;;15.06;46.61;63549.66;5044002;28;20214;-77
2022/09/24 10:10:02;;;;;;;7.68;4.25;;;;;;;15.12;47.28;63555.38;5044318;28;20194;-78
2022/09/24 10:12:29;;;;;;;3.20;3.00;;;;;;;15.20;46.94;63565.75;5049819;28;20275;-77
2022/09/24 10:14:58;;;;;;;4.85;3.50;;;;;;;15.28;46.89;63579.19;5042986;28;20194;-78
2022/09/24 10:17:29;;;;;;;3.50;3.20;;;;;;;15.55;45.82;63597.00;5040043;28;20244;-77
2022/09/24 10:20:00;;;;;;;4.50;3.15;;;;;;;15.59;44.08;63606.28;5029376;28;20225;-78
2022/09/24 10:22:28;;;;;;;3.85;3.55;;;;;;;15.65;44.60;63615.09;5041615;28;20222;-77
2022/09/24 10:24:59;;;;;;;3.47;3.17;;;;;;;15.68;42.71;63615.66;5045621;28;20198;-77
2022/09/24 10:27:31;;;;;;;2.35;2.15;;;;;;;15.68;41.82;63613.09;5042655;28;20276;-77
2022/09/24 10:32:47;;;;;;;5.18;2.55;;;;;;;15.58;43.67;63605.25;5044839;28;20244;-77
2022/09/24 10:35:26;;;;;;;2.47;2.38;;;;;;;15.79;44.95;63632.75;5045053;28;20210;-78
2022/09/24 10:37:54;;;;;;;2.88;2.67;;;;;;;16.05;45.40;63659.78;5028473;28;20522;-78
2022/09/24 10:40:24;;;;;;;2.17;2.10;;;;;;;16.20;40.90;63677.94;5036226;28;20202;-79
2022/09/24 10:43:01;;;;;;;3.75;3.22;;;;;;;16.06;42.14;63655.16;5036810;28;20281;-78
2022/09/24 10:45:52;;;;;;;3.50;3.30;;;;;;;16.22;41.75;63671.28;5036442;28;20510;-78
2022/09/24 10:48:23;;;;;;;2.58;2.47;;;;;;;16.20;40.61;63672.31;5036790;28;20269;-78
2022/09/24 10:50:57;;;;;;;4.13;3.83;;;;;;;16.30;41.11;63680.13;5035992;28;20379;-77
2022/09/24 10:53:38;;;;;;;5.43;3.20;;;;;;;16.40;41.17;63690.53;5039164;28;20292;-78
2022/09/24 10:56:14;;;;;;;7.13;3.20;;;;;;;16.50;41.03;63700.94;5040242;28;20243;-78
2022/09/24 10:59:08;;;;;;;3.85;3.38;;;;;;;16.48;41.02;63698.34;5039321;28;20271;-77
2022/09/24 11:01:44;;;;;;;3.10;2.90;;;;;;;16.60;40.77;63708.25;5035569;28;20197;-77
2022/09/24 11:04:22;;;;;;;10.65;3.70;;;;;;;16.64;40.23;63717.56;5044397;28;20213;-77
2022/09/24 11:07:32;;;;;;;3.58;3.38;;;;;;;16.64;40.94;63720.66;5037349;28;20242;-77
2022/09/24 11:10:09;;;;;;;7.97;2.88;;;;;;;16.74;41.05;63727.97;5042799;28;20206;-78
2022/09/24 11:12:46;;;;;;;5.50;2.70;;;;;;;16.73;40.55;63726.94;5038409;28;20236;-78
2022/09/24 11:15:30;;;;;;;2.95;2.75;;;;;;;16.90;41.40;63742.56;5039551;28;20395;-78
2022/09/24 11:18:11;;;;;;;3.10;2.90;;;;;;;17.02;40.53;63749.91;5037120;28;20206;-78
2022/09/24 11:20:40;;;;;;;3.20;2.85;;;;;;;17.13;40.95;63766.00;5035362;28;20202;-78
2022/09/24 11:23:44;;;;;;;3.05;2.85;;;;;;;17.33;40.31;63787.31;5035422;28;20217;-76
2022/09/24 11:26:27;;;;;;;3.60;3.30;;;;;;;17.56;39.61;63807.66;5034469;28;20501;-77
2022/09/24 11:29:15;;;;;;;3.33;2.92;;;;;;;17.71;40.41;63831.00;5034241;28;20193;-79
2022/09/24 11:31:53;;;;;;;4.05;3.75;;;;;;;17.96;39.60;63855.00;5038312;28;20194;-77
2022/09/24 11:34:37;;;;;;;3.55;3.25;;;;;;;17.90;38.86;63851.31;5034156;28;20202;-77
2022/09/24 11:37:20;;;;;;;2.80;2.60;;;;;;;18.04;41.01;63860.22;5036159;28;20220;-77
2022/09/24 11:40:04;;;;;;;3.72;3.42;;;;;;;18.26;39.62;63883.69;5045355;28;20491;-78
2022/09/24 11:42:36;;;;;;;3.53;3.22;;;;;;;18.38;39.08;63900.81;5036490;28;20248;-78
2022/09/24 11:45:18;;;;;;;3.95;3.05;;;;;;;18.54;40.25;63911.81;5037500;28;20197;-77
2022/09/24 11:48:01;;;;;;;3.00;2.80;;;;;;;18.75;37.22;63933.72;5040453;28;20220;-77
2022/09/24 11:50:39;;;;;;;3.35;2.65;;;;;;;18.82;36.20;63946.69;5035771;28;20233;-78
2022/09/24 11:53:13;;;;;;;2.75;2.55;;;;;;;18.94;38.30;63956.63;5035381;28;20495;-78
2022/09/24 11:55:48;;;;;;;4.30;2.83;;;;;;;19.11;38.35;63971.22;5036959;28;20197;-78
2022/09/24 11:58:18;;;;;;;3.17;2.97;;;;;;;19.10;38.23;63970.19;5037855;28;20224;-77
2022/09/24 12:00:51;;;;;;;3.47;3.10;;;;;;;19.32;38.89;63993.16;5038085;28;20199;-77